Time;durP1;ratioP1;P1;durP2;ratioP2;P2;SDS_P1;SDS_P2;PMS_P1;PMS_P2;Temp;Humidity;BMP_temperature;BMP_pressure;BME280_temperature;BME280_humidity;BME280_pressure;Samples;Min_cycle;Max_cycle;Signal;HPM_P1;HPM_P2
2023/09/25 00:01:09;;;;;;;22.50;14.60;;;;;;;20.01;91.47;97752.63;10287536;28;20030;-51
2023/09/25 00:06:09;;;;;;;27.05;14.45;;;;;;;20.01;91.44;97765.78;10288944;28;20077;-51
2023/09/25 00:11:08;;;;;;;24.73;16.50;;;;;;;19.92;91.88;97770.56;10288813;28;20065;-51
2023/09/25 00:16:12;;;;;;;25.35;15.85;;;;;;;19.74;92.59;97775.59;10285540;28;20073;-51
2023/09/25 00:21:11;;;;;;;28.10;16.10;;;;;;;19.68;92.55;97762.66;10285881;28;20500;-50
2023/09/25 00:26:12;;;;;;;26.08;16.95;;;;;;;19.61;92.46;97753.28;10287899;28;20480;-51
2023/09/25 00:31:11;;;;;;;27.50;17.05;;;;;;;19.73;92.45;97765.13;10286724;28;20077;-51
2023/09/25 00:36:10;;;;;;;24.58;16.10;;;;;;;19.76;92.43;97772.91;10286889;28;20118;-51
2023/09/25 00:41:09;;;;;;;25.77;16.83;;;;;;;19.83;92.44;97775.25;10283836;28;20032;-52
2023/09/25 00:46:08;;;;;;;26.60;16.25;;;;;;;19.92;92.44;97774.03;10283127;28;20042;-52
2023/09/25 00:51:07;;;;;;;27.30;17.13;;;;;;;19.18;92.38;97645.22;10283923;28;20493;-51
2023/09/25 00:56:07;;;;;;;21.20;14.60;;;;;;;19.66;93.46;97769.78;10283207;28;20070;-51
2023/09/25 01:01:11;;;;;;;25.90;16.35;;;;;;;19.62;93.71;97778.69;10281190;28;20124;-51
2023/09/25 01:06:10;;;;;;;25.33;16.95;;;;;;;19.55;93.75;97764.00;10283538;28;20585;-50
2023/09/25 01:11:09;;;;;;;28.15;17.55;;;;;;;19.42;93.54;97748.66;10283175;28;20525;-51
2023/09/25 01:16:08;;;;;;;24.60;17.10;;;;;;;19.40;94.70;97768.91;10282920;28;20070;-50
2023/09/25 01:21:07;;;;;;;28.02;17.35;;;;;;;19.30;95.17;97778.06;10284898;28;20037;-52
2023/09/25 01:26:06;;;;;;;28.92;17.85;;;;;;;19.36;95.11;97764.66;10289657;28;20034;-52
2023/09/25 01:31:07;;;;;;;31.52;18.80;;;;;;;19.41;94.71;97772.41;10291000;28;20032;-51
2023/09/25 01:36:06;;;;;;;27.58;16.67;;;;;;;19.45;94.76;97780.13;10290886;28;20064;-50
2023/09/25 01:41:05;;;;;;;27.27;16.80;;;;;;;19.50;94.41;97776.47;10290712;28;20084;-51
2023/09/25 01:46:04;;;;;;;27.88;16.05;;;;;;;19.51;94.02;97778.19;10291112;28;20109;-51
2023/09/25 01:51:10;;;;;;;25.33;15.95;;;;;;;19.48;94.15;97783.56;10290352;28;20121;-51
2023/09/25 01:56:13;;;;;;;22.35;14.55;;;;;;;19.53;93.94;97781.63;10288016;28;20117;-51
2023/09/25 02:01:12;;;;;;;28.00;15.73;;;;;;;18.75;93.58;97646.75;10289079;28;20100;-51
2023/09/25 02:06:10;;;;;;;22.85;15.07;;;;;;;19.63;93.27;97785.69;10289778;28;20038;-51
2023/09/25 02:11:09;;;;;;;25.25;15.48;;;;;;;19.51;93.14;97776.44;10289797;28;20042;-55
2023/09/25 02:16:09;;;;;;;23.83;14.95;;;;;;;19.70;92.74;97807.34;10290220;28;20030;-52
2023/09/25 02:21:08;;;;;;;23.42;15.48;;;;;;;19.72;92.49;97801.16;10289396;28;20096;-54
2023/09/25 02:26:07;;;;;;;23.00;15.25;;;;;;;19.61;92.24;97782.25;10289200;28;20116;-54
2023/09/25 02:31:07;;;;;;;27.33;15.85;;;;;;;19.66;92.19;97809.25;10289200;28;20121;-54
2023/09/25 02:36:09;;;;;;;27.73;16.58;;;;;;;19.19;92.74;97752.13;10287332;28;20121;-53
2023/09/25 02:41:08;;;;;;;27.33;18.17;;;;;;;19.24;93.46;97788.81;10290925;28;20069;-53
2023/09/25 02:46:07;;;;;;;30.25;16.77;;;;;;;19.25;93.93;97803.66;10292088;28;20026;-49
2023/09/25 02:51:05;;;;;;;25.15;17.85;;;;;;;19.19;94.18;97812.63;10290832;28;20500;-49
2023/09/25 02:56:04;;;;;;;25.60;17.38;;;;;;;19.26;93.91;97815.06;10291509;28;20038;-51
2023/09/25 03:01:03;;;;;;;27.48;17.38;;;;;;;19.00;93.84;97777.38;10291171;28;20117;-50
2023/09/25 03:06:03;;;;;;;26.70;16.83;;;;;;;19.28;93.63;97823.78;10289610;28;20138;-51
2023/09/25 03:11:02;;;;;;;24.20;13.88;;;;;;;19.27;93.08;97825.53;10290675;28;20099;-51
2023/09/25 03:16:00;;;;;;;23.85;14.60;;;;;;;19.23;92.69;97823.94;10291323;28;20073;-51
2023/09/25 03:21:08;;;;;;;23.88;14.25;;;;;;;19.22;91.76;97830.94;10289806;28;20121;-51
2023/09/25 03:26:14;;;;;;;21.33;12.93;;;;;;;19.18;91.31;97839.88;10289244;28;20655;-50
2023/09/25 03:31:13;;;;;;;18.02;13.43;;;;;;;18.90;91.02;97797.88;10285768;28;20061;-51
2023/09/25 03:36:13;;;;;;;23.48;14.20;;;;;;;19.13;90.93;97848.81;10287331;28;20811;-51
2023/09/25 03:41:12;;;;;;;25.25;15.02;;;;;;;19.08;90.53;97858.63;10284388;28;20080;-51
2023/09/25 03:46:11;;;;;;;28.05;15.85;;;;;;;19.00;91.11;97862.38;10283693;28;20124;-51
2023/09/25 03:51:10;;;;;;;22.30;14.52;;;;;;;18.74;91.46;97817.69;10284711;28;20147;-49
2023/09/25 03:56:09;;;;;;;22.50;15.00;;;;;;;19.08;91.81;97871.78;10285800;28;20029;-51
2023/09/25 04:01:08;;;;;;;24.73;15.85;;;;;;;19.14;91.95;97863.69;10285189;28;20131;-51
2023/09/25 04:06:07;;;;;;;25.45;16.67;;;;;;;19.20;92.18;97866.97;10283911;28;20064;-51
2023/09/25 04:11:09;;;;;;;31.30;16.60;;;;;;;19.23;92.50;97876.53;10280627;28;20065;-51
2023/09/25 04:16:12;;;;;;;27.30;16.52;;;;;;;19.33;92.56;97880.56;10282230;28;20453;-52
2023/09/25 04:21:17;;;;;;;23.58;16.10;;;;;;;19.42;92.38;97884.66;10283807;28;20088;-50
2023/09/25 04:26:16;;;;;;;27.15;15.65;;;;;;;19.49;92.22;97887.94;10282797;28;20116;-51
2023/09/25 04:31:15;;;;;;;26.95;15.32;;;;;;;19.57;92.39;97892.03;10282426;28;20036;-50
2023/09/25 04:36:14;;;;;;;22.80;14.45;;;;;;;19.63;92.06;97898.88;10284599;28;20136;-50
2023/09/25 04:41:13;;;;;;;27.38;15.45;;;;;;;19.52;91.61;97890.47;10283781;28;20033;-51
2023/09/25 04:46:12;;;;;;;26.35;15.00;;;;;;;19.68;91.57;97910.09;10283774;28;20044;-51
2023/09/25 04:51:11;;;;;;;28.05;14.40;;;;;;;19.62;91.64;97918.22;10283761;28;20698;-51
2023/09/25 04:56:10;;;;;;;26.40;13.80;;;;;;;19.07;93.20;97904.28;10283073;28;20406;-50
2023/09/25 05:01:09;;;;;;;23.52;14.07;;;;;;;19.06;93.72;97918.31;10281342;28;20022;-52
2023/09/25 05:06:10;;;;;;;24.73;14.65;;;;;;;18.54;94.23;97876.97;10279479;28;20030;-51
2023/09/25 05:11:11;;;;;;;27.38;14.10;;;;;;;18.93;94.45;97942.38;10280480;28;20124;-51
2023/09/25 05:16:10;;;;;;;22.88;13.68;;;;;;;19.07;94.31;97946.34;10276212;28;20141;-52
2023/09/25 05:21:09;;;;;;;18.80;13.63;;;;;;;18.87;94.82;97933.84;10281687;28;20470;-51
2023/09/25 05:26:08;;;;;;;25.25;14.52;;;;;;;18.59;95.64;97911.84;10264475;28;20421;-50
2023/09/25 05:31:07;;;;;;;25.33;14.20;;;;;;;19.00;94.79;97940.44;10282014;28;20026;-51
2023/09/25 05:36:06;;;;;;;20.33;13.93;;;;;;;18.66;94.78;97893.25;10281169;28;20150;-51
2023/09/25 05:41:05;;;;;;;23.33;14.73;;;;;;;19.22;93.50;97951.09;10282259;28;20053;-51
2023/09/25 05:46:04;;;;;;;22.95;14.57;;;;;;;19.22;92.76;97964.25;10282213;28;20501;-52
2023/09/25 05:51:03;;;;;;;20.95;14.10;;;;;;;19.30;91.99;97964.88;10282860;28;20121;-52
2023/09/25 05:56:02;;;;;;;23.98;16.05;;;;;;;19.11;92.39;97969.00;10283183;28;20026;-51
2023/09/25 06:01:01;;;;;;;27.33;17.10;;;;;;;19.17;91.36;97948.63;10282565;28;20057;-51
2023/09/25 06:06:00;;;;;;;28.50;16.67;;;;;;;19.23;91.63;97971.25;10281590;28;20136;-51
2023/09/25 06:11:02;;;;;;;27.98;19.15;;;;;;;19.25;91.29;97974.69;10288147;28;20148;-52
2023/09/25 06:16:01;;;;;;;27.13;18.17;;;;;;;19.23;91.23;97980.00;10288959;28;20776;-51
2023/09/25 06:21:00;;;;;;;32.10;18.45;;;;;;;19.26;90.99;97983.44;10272424;28;20121;-51
2023/09/25 06:25:59;;;;;;;26.80;18.50;;;;;;;19.39;90.55;97980.38;10288961;28;20568;-52
2023/09/25 06:30:58;;;;;;;27.08;18.83;;;;;;;19.35;90.77;97984.00;10287002;28;20677;-51
2023/09/25 06:35:57;;;;;;;25.05;19.13;;;;;;;19.39;90.33;97998.78;10289179;28;20446;-50
2023/09/25 06:40:56;;;;;;;27.15;18.67;;;;;;;19.52;89.94;97995.75;10287223;28;20564;-51
2023/09/25 06:45:56;;;;;;;26.83;17.40;;;;;;;19.27;90.23;97991.28;10285868;28;20675;-51
2023/09/25 06:50:55;;;;;;;27.33;18.02;;;;;;;19.25;91.16;98001.00;10285445;28;20060;-51
2023/09/25 06:55:55;;;;;;;25.02;17.05;;;;;;;19.34;90.61;97999.84;10286503;28;20034;-50
2023/09/25 07:00:54;;;;;;;29.65;18.40;;;;;;;19.36;90.49;98004.13;10287946;28;20700;-52
2023/09/25 07:05:53;;;;;;;35.35;22.40;;;;;;;19.41;90.88;97996.94;10268911;28;20566;-51
2023/09/25 07:10:52;;;;;;;32.80;22.10;;;;;;;19.58;89.54;97979.78;10284898;28;20644;-51
2023/09/25 07:15:51;;;;;;;31.00;19.17;;;;;;;19.60;89.96;98014.81;10289386;28;20847;-51
2023/09/25 07:20:54;;;;;;;30.13;19.20;;;;;;;18.86;90.67;97947.91;10286150;28;20861;-51
2023/09/25 07:26:03;;;;;;;32.45;20.23;;;;;;;19.35;89.73;98005.06;10284887;28;20100;-52
2023/09/25 07:31:02;;;;;;;31.52;19.60;;;;;;;19.43;89.59;98016.19;10284259;28;20499;-52
2023/09/25 07:36:03;;;;;;;28.05;18.92;;;;;;;19.35;90.28;98031.38;10284908;28;20571;-51
2023/09/25 07:41:02;;;;;;;31.83;18.77;;;;;;;19.35;89.70;98034.00;10288395;28;20088;-52
2023/09/25 07:46:02;;;;;;;30.73;18.50;;;;;;;19.36;89.51;98027.81;10288840;28;20053;-50
2023/09/25 07:51:01;;;;;;;29.85;17.35;;;;;;;19.43;87.62;98033.75;10288644;28;20077;-51
2023/09/25 07:56:02;;;;;;;25.88;15.80;;;;;;;19.35;86.90;98036.63;10289004;28;20113;-51
2023/09/25 08:01:07;;;;;;;21.08;14.05;;;;;;;19.43;85.96;98039.88;10286741;28;20485;-50
2023/09/25 08:06:07;;;;;;;23.73;15.32;;;;;;;19.53;85.40;98034.31;10286477;28;20065;-52
2023/09/25 08:11:06;;;;;;;19.83;14.15;;;;;;;19.84;83.29;98040.31;10287490;28;20057;-51
2023/09/25 08:16:08;;;;;;;19.73;13.32;;;;;;;20.11;82.48;98040.28;10285050;28;20021;-51
2023/09/25 08:21:08;;;;;;;21.85;12.65;;;;;;;20.40;81.38;98038.41;10287239;28;20445;-52
2023/09/25 08:26:07;;;;;;;18.70;12.70;;;;;;;20.26;79.17;97973.88;10286959;28;20061;-51
2023/09/25 08:31:06;;;;;;;63.80;45.10;;;;;;;20.86;77.77;98042.84;10284843;28;20053;-52
2023/09/25 08:36:09;;;;;;;16.15;12.30;;;;;;;20.59;76.71;97910.28;10285874;28;20065;-53
2023/09/25 08:41:09;;;;;;;20.88;12.23;;;;;;;21.28;74.18;97996.41;10283758;28;20113;-51
2023/09/25 08:46:08;;;;;;;19.33;11.77;;;;;;;21.47;73.65;98044.88;10282999;28;20537;-52
2023/09/25 08:51:08;;;;;;;17.83;12.15;;;;;;;21.79;72.35;98045.34;10283462;28;20112;-52
2023/09/25 08:56:12;;;;;;;19.70;12.75;;;;;;;21.62;71.34;98053.13;10282753;28;20069;-52
2023/09/25 09:01:11;;;;;;;15.88;11.40;;;;;;;21.87;71.37;98053.81;10282499;28;20536;-52
2023/09/25 09:06:11;;;;;;;19.55;12.75;;;;;;;22.06;70.39;98053.94;10281011;28;20475;-52
2023/09/25 09:11:10;;;;;;;21.17;12.20;;;;;;;21.97;69.25;98007.59;10281329;28;20053;-54
2023/09/25 09:16:14;;;;;;;18.60;12.90;;;;;;;22.37;68.45;98055.25;10281151;28;20153;-52
2023/09/25 09:21:27;;;;;;;21.55;13.45;;;;;;;22.18;68.97;98052.56;10281280;28;20065;-52
2023/09/25 09:26:26;;;;;;;21.05;12.98;;;;;;;21.86;69.56;98056.53;10282438;28;20831;-52
2023/09/25 09:31:25;;;;;;;16.35;12.43;;;;;;;21.53;70.77;98059.63;10263604;28;20539;-51
2023/09/25 09:36:24;;;;;;;19.85;12.55;;;;;;;21.37;71.69;98056.75;10282620;28;20072;-52
2023/09/25 09:41:24;;;;;;;21.15;13.38;;;;;;;20.99;73.63;98060.88;10282598;28;20038;-52
2023/09/25 09:46:27;;;;;;;19.85;13.85;;;;;;;21.00;74.14;98055.50;10287846;28;20129;-52
2023/09/25 09:51:28;;;;;;;20.40;13.45;;;;;;;20.37;75.60;98017.41;10286296;28;20081;-52
2023/09/25 09:56:27;;;;;;;18.95;13.65;;;;;;;20.59;76.66;98065.84;10286322;28;20476;-52
2023/09/25 10:01:26;;;;;;;29.17;14.35;;;;;;;20.48;77.11;98037.22;10284535;28;20560;-52
2023/09/25 10:06:28;;;;;;;23.17;14.35;;;;;;;20.16;78.80;98074.38;10285887;28;20121;-52
2023/09/25 10:11:27;;;;;;;23.90;13.38;;;;;;;20.03;79.80;98072.16;10283545;28;20568;-51
2023/09/25 10:16:29;;;;;;;22.38;13.90;;;;;;;19.93;80.30;98038.28;10284812;28;20132;-52
2023/09/25 10:21:28;;;;;;;21.70;12.98;;;;;;;20.19;79.54;98072.50;10268092;28;20423;-52
2023/09/25 10:26:31;;;;;;;20.95;13.48;;;;;;;20.00;80.01;98082.81;10285407;28;20132;-51
2023/09/25 10:31:32;;;;;;;22.98;13.48;;;;;;;19.72;80.09;98022.31;10284851;28;20057;-52
2023/09/25 10:36:36;;;;;;;18.80;12.25;;;;;;;20.30;79.26;98069.47;10267692;28;20255;-52
2023/09/25 10:41:37;;;;;;;25.40;13.85;;;;;;;20.92;76.45;98068.16;10288076;28;20481;-52
2023/09/25 10:46:36;;;;;;;19.77;11.57;;;;;;;21.25;74.36;98059.88;10269831;28;20108;-52
2023/09/25 10:51:35;;;;;;;18.77;11.98;;;;;;;21.57;72.10;98055.06;10287683;28;20029;-52
2023/09/25 10:56:34;;;;;;;19.00;12.73;;;;;;;22.01;69.60;98049.75;10286667;28;20080;-52
2023/09/25 11:01:35;;;;;;;19.75;12.65;;;;;;;22.38;69.25;98012.88;10286996;28;20509;-52
2023/09/25 11:06:34;;;;;;;18.38;12.65;;;;;;;23.16;67.81;98053.44;10286613;28;20508;-52
2023/09/25 11:11:33;;;;;;;25.08;12.85;;;;;;;23.59;65.56;98039.94;10287315;28;20064;-53
2023/09/25 11:16:33;;;;;;;19.13;13.32;;;;;;;23.64;64.57;98003.47;10287418;28;20053;-53
2023/09/25 11:21:32;;;;;;;20.88;12.55;;;;;;;24.06;61.80;98026.94;10286247;28;20579;-53
2023/09/25 11:26:35;;;;;;;20.00;13.25;;;;;;;24.17;61.70;98038.78;10268679;28;20081;-52
2023/09/25 11:31:38;;;;;;;21.23;13.55;;;;;;;24.32;60.71;98029.22;10286538;28;20069;-53
2023/09/25 11:36:44;;;;;;;20.00;11.88;;;;;;;24.52;58.71;98021.06;10285077;28;20113;-53
2023/09/25 11:41:44;;;;;;;19.40;12.70;;;;;;;24.73;58.93;98019.06;10283069;28;20533;-53
2023/09/25 11:46:45;;;;;;;17.40;11.95;;;;;;;24.70;57.99;97966.97;10282486;28;20124;-53
2023/09/25 11:51:44;;;;;;;21.73;12.68;;;;;;;25.19;56.90;98016.53;10281656;28;20141;-53
2023/09/25 11:56:43;;;;;;;22.20;12.20;;;;;;;25.29;56.24;98012.44;10281715;28;20029;-53
2023/09/25 12:01:42;;;;;;;21.48;12.48;;;;;;;25.27;55.53;98002.81;10280111;28;20042;-55
2023/09/25 12:06:42;;;;;;;16.55;11.38;;;;;;;25.33;56.12;97998.00;10280709;28;20461;-54
2023/09/25 12:11:41;;;;;;;21.83;11.75;;;;;;;25.36;56.03;97990.81;10281237;28;20061;-53
2023/09/25 12:16:40;;;;;;;17.60;11.85;;;;;;;25.58;55.97;97985.16;10280042;28;20132;-52
2023/09/25 12:21:39;;;;;;;15.80;11.43;;;;;;;25.84;54.68;97979.16;10281719;28;20052;-52
2023/09/25 12:26:38;;;;;;;20.50;12.15;;;;;;;26.01;54.00;97978.13;10279981;28;20026;-53
2023/09/25 12:31:37;;;;;;;20.90;12.02;;;;;;;26.12;52.78;97975.69;10280269;28;20472;-53
2023/09/25 12:36:36;;;;;;;19.15;11.05;;;;;;;26.10;52.79;97971.41;10280570;28;20112;-52
2023/09/25 12:41:35;;;;;;;16.55;12.00;;;;;;;25.79;53.20;97949.34;10280126;28;20115;-53
2023/09/25 12:46:35;;;;;;;17.63;11.63;;;;;;;25.76;53.19;97975.22;10280458;28;20202;-53
2023/09/25 12:51:34;;;;;;;19.13;12.35;;;;;;;25.69;54.83;97967.63;10280623;28;20057;-52
2023/09/25 12:56:33;;;;;;;19.15;12.57;;;;;;;25.67;55.34;97966.88;10279817;28;20108;-53
2023/09/25 13:01:32;;;;;;;17.92;12.75;;;;;;;25.78;56.47;97966.22;10279302;28;20134;-53
2023/09/25 13:06:31;;;;;;;22.45;11.82;;;;;;;26.09;56.02;97965.25;10279996;28;20506;-53
2023/09/25 13:11:34;;;;;;;17.08;11.10;;;;;;;26.39;53.56;97961.66;10279709;28;20065;-53
2023/09/25 13:16:33;;;;;;;22.38;12.27;;;;;;;26.26;54.03;97956.25;10280940;28;20076;-54
2023/09/25 13:21:32;;;;;;;18.95;11.70;;;;;;;26.40;53.80;97951.91;10288183;28;20072;-53
2023/09/25 13:26:31;;;;;;;17.02;11.43;;;;;;;26.71;53.43;97956.13;10288297;28;20038;-53
2023/09/25 13:31:30;;;;;;;15.68;11.23;;;;;;;26.86;52.35;97947.22;10287480;28;20511;-53
2023/09/25 13:36:29;;;;;;;16.98;11.57;;;;;;;26.83;51.61;97944.72;10287472;28;20117;-54
2023/09/25 13:41:29;;;;;;;19.35;11.35;;;;;;;26.60;52.20;97924.88;10289778;28;20084;-54
2023/09/25 13:46:28;;;;;;;16.73;11.32;;;;;;;26.64;52.29;97946.81;10289700;28;20069;-53
2023/09/25 13:51:27;;;;;;;18.83;10.65;;;;;;;26.52;52.31;97940.47;10289851;28;20046;-54
2023/09/25 13:56:27;;;;;;;15.95;10.60;;;;;;;26.48;52.16;97939.78;10290314;28;20022;-55
2023/09/25 14:01:25;;;;;;;16.20;10.18;;;;;;;26.15;51.90;97895.69;10289088;28;20076;-52
2023/09/25 14:06:24;;;;;;;22.90;11.05;;;;;;;26.40;51.90;97936.78;10290487;28;20141;-52
2023/09/25 14:11:23;;;;;;;13.63;9.65;;;;;;;26.35;51.91;97933.56;10291274;28;20045;-52
2023/09/25 14:16:22;;;;;;;17.77;10.18;;;;;;;26.25;52.26;97927.06;10273807;28;20141;-52
2023/09/25 14:21:21;;;;;;;15.93;10.10;;;;;;;26.08;52.63;97899.69;10288326;28;20084;-54
2023/09/25 14:26:20;;;;;;;13.90;9.95;;;;;;;26.12;53.48;97926.97;10288674;28;20503;-53
2023/09/25 14:31:20;;;;;;;13.68;9.70;;;;;;;26.04;53.89;97922.13;10286808;28;20068;-53
2023/09/25 14:36:18;;;;;;;15.15;10.05;;;;;;;25.95;53.62;97914.72;10270492;28;20054;-54
2023/09/25 14:41:17;;;;;;;15.20;11.13;;;;;;;25.81;54.07;97925.28;10283940;28;20059;-53
2023/09/25 14:46:16;;;;;;;19.83;10.60;;;;;;;25.56;54.77;97929.44;10284237;28;20026;-54
2023/09/25 14:51:15;;;;;;;19.88;12.45;;;;;;;25.28;55.10;97928.34;10260954;28;20046;-52
2023/09/25 14:56:14;;;;;;;18.33;11.18;;;;;;;24.98;56.77;97922.16;10281978;28;20026;-53
2023/09/25 15:01:13;;;;;;;20.20;12.05;;;;;;;24.85;57.89;97921.97;10280066;28;20068;-54
2023/09/25 15:06:13;;;;;;;18.45;11.00;;;;;;;24.74;58.42;97924.38;10281187;28;20137;-53
2023/09/25 15:11:12;;;;;;;31.33;12.07;;;;;;;24.65;58.94;97920.41;10283395;28;20116;-52
2023/09/25 15:16:11;;;;;;;18.67;11.25;;;;;;;24.56;60.14;97926.22;10282844;28;20032;-52
2023/09/25 15:21:10;;;;;;;19.58;11.57;;;;;;;24.42;60.76;97913.72;10283105;28;20480;-52
2023/09/25 15:26:11;;;;;;;20.48;13.10;;;;;;;24.30;61.28;97911.75;10283635;28;20030;-52
2023/09/25 15:31:10;;;;;;;18.15;12.68;;;;;;;24.16;61.85;97928.38;10278355;28;20129;-50
2023/09/25 15:36:09;;;;;;;19.38;12.63;;;;;;;23.97;63.00;97918.72;10282293;28;20026;-52
2023/09/25 15:41:08;;;;;;;19.58;12.98;;;;;;;23.83;63.08;97915.97;10281796;28;20481;-52
2023/09/25 15:46:12;;;;;;;27.27;13.52;;;;;;;23.75;63.61;97918.16;10281336;28;20126;-54
2023/09/25 15:51:11;;;;;;;19.10;11.80;;;;;;;23.68;63.72;97928.22;10284927;28;20120;-53
2023/09/25 15:56:10;;;;;;;19.50;12.73;;;;;;;23.58;63.43;97922.53;10282535;28;20904;-52
2023/09/25 16:01:10;;;;;;;19.15;14.00;;;;;;;23.38;63.47;97931.44;10280988;28;20072;-54
2023/09/25 16:06:09;;;;;;;19.63;13.40;;;;;;;23.31;63.72;97945.94;10281183;28;20124;-53
2023/09/25 16:11:08;;;;;;;19.08;13.50;;;;;;;23.23;64.06;97940.13;10281032;28;20088;-53
2023/09/25 16:16:13;;;;;;;19.50;14.02;;;;;;;23.13;65.01;97946.81;10277906;28;20029;-53
2023/09/25 16:21:12;;;;;;;19.65;12.43;;;;;;;22.89;65.21;97951.53;10281302;28;20069;-51
2023/09/25 16:26:11;;;;;;;24.35;12.38;;;;;;;22.85;65.38;97957.88;10280863;28;20136;-52
2023/09/25 16:31:10;;;;;;;17.85;12.77;;;;;;;22.57;66.17;97927.41;10279323;28;20039;-52
2023/09/25 16:36:11;;;;;;;20.67;12.68;;;;;;;22.71;66.59;97956.72;10280007;28;20022;-54
2023/09/25 16:41:11;;;;;;;17.92;12.45;;;;;;;22.64;67.29;97960.56;10280801;28;20507;-52
2023/09/25 16:46:09;;;;;;;19.95;12.02;;;;;;;22.48;67.79;97943.69;10279726;28;20616;-52
2023/09/25 16:51:08;;;;;;;21.17;12.57;;;;;;;22.56;67.98;97953.00;10279031;28;20044;-53
2023/09/25 16:56:07;;;;;;;16.45;11.55;;;;;;;22.49;68.11;97959.50;10280542;28;20425;-52
2023/09/25 17:01:07;;;;;;;18.52;12.50;;;;;;;22.41;68.54;97972.19;10279150;28;20029;-52
2023/09/25 17:06:06;;;;;;;15.32;11.88;;;;;;;22.35;69.05;97962.78;10279377;28;20140;-51
2023/09/25 17:11:05;;;;;;;18.33;12.35;;;;;;;22.35;69.10;97975.16;10265701;28;20076;-51
2023/09/25 17:16:08;;;;;;;20.23;13.73;;;;;;;22.30;69.03;97980.63;10281032;28;20018;-52
2023/09/25 17:21:07;;;;;;;17.83;12.23;;;;;;;22.15;69.82;97971.59;10280303;28;20065;-52
2023/09/25 17:26:06;;;;;;;16.48;13.43;;;;;;;22.13;70.13;97983.16;10282838;28;20033;-51
2023/09/25 17:31:06;;;;;;;16.38;12.50;;;;;;;22.08;70.37;97985.16;10281498;28;20034;-52
2023/09/25 17:36:05;;;;;;;21.27;12.52;;;;;;;22.02;70.61;97988.09;10282505;28;20101;-51
2023/09/25 17:41:09;;;;;;;17.98;12.02;;;;;;;21.96;70.87;97995.28;10278323;28;20528;-52
2023/09/25 17:46:08;;;;;;;17.25;11.65;;;;;;;21.90;71.30;97995.56;10276728;28;20125;-51
2023/09/25 17:51:07;;;;;;;15.07;12.25;;;;;;;21.86;70.92;98003.69;10278703;28;20487;-52
2023/09/25 17:56:08;;;;;;;16.42;12.07;;;;;;;21.79;71.38;98012.81;10278423;28;20416;-52
2023/09/25 18:01:07;;;;;;;17.70;12.52;;;;;;;21.69;71.81;98012.34;10278068;28;20088;-52
2023/09/25 18:06:07;;;;;;;15.10;12.15;;;;;;;21.58;72.07;98019.84;10281850;28;20286;-51
2023/09/25 18:11:05;;;;;;;19.30;12.70;;;;;;;21.32;72.26;97998.84;10285672;28;20072;-52
2023/09/25 18:16:04;;;;;;;19.88;13.57;;;;;;;21.31;72.58;98017.38;10284238;28;20010;-54
2023/09/25 18:21:03;;;;;;;16.85;12.63;;;;;;;21.27;72.53;98029.00;10285506;28;20412;-53
2023/09/25 18:26:02;;;;;;;21.60;12.45;;;;;;;21.05;72.40;98013.13;10284436;28;20038;-52
2023/09/25 18:31:02;;;;;;;18.33;12.30;;;;;;;21.05;72.87;98032.44;10283788;28;20030;-53
2023/09/25 18:36:01;;;;;;;17.52;12.52;;;;;;;20.87;72.76;98020.84;10284702;28;20105;-52
2023/09/25 18:41:00;;;;;;;32.17;12.00;;;;;;;20.86;72.87;98039.34;10287293;28;20084;-51
2023/09/25 18:45:59;;;;;;;18.52;13.13;;;;;;;20.76;73.74;98032.72;10287641;28;20034;-50
2023/09/25 18:51:04;;;;;;;16.35;12.50;;;;;;;20.65;74.20;98036.59;10289368;28;20107;-52
2023/09/25 18:56:03;;;;;;;19.98;13.35;;;;;;;20.56;74.91;98028.16;10286826;28;20370;-52
2023/09/25 19:01:02;;;;;;;20.00;13.73;;;;;;;20.39;75.19;98036.66;10287032;28;20049;-52
2023/09/25 19:06:01;;;;;;;18.73;13.63;;;;;;;20.31;75.60;98049.28;10286344;28;20033;-52
2023/09/25 19:11:00;;;;;;;23.58;12.95;;;;;;;20.16;76.12;98043.59;10287397;28;20060;-50
2023/09/25 19:15:59;;;;;;;19.23;13.52;;;;;;;20.05;76.51;98053.69;10286722;28;20029;-51
2023/09/25 19:20:58;;;;;;;19.83;12.85;;;;;;;19.89;76.74;98057.75;10286576;28;20177;-51
2023/09/25 19:25:57;;;;;;;21.08;11.98;;;;;;;19.79;77.18;98058.06;10286794;28;20029;-52
2023/09/25 19:30:56;;;;;;;18.60;13.77;;;;;;;19.63;77.68;98051.56;10286674;28;20263;-52
2023/09/25 19:35:55;;;;;;;17.67;12.40;;;;;;;19.50;78.37;98073.91;10285625;28;20525;-52
2023/09/25 19:40:54;;;;;;;16.48;12.82;;;;;;;19.40;79.12;98075.97;10282237;28;20025;-52
2023/09/25 19:45:53;;;;;;;16.60;12.25;;;;;;;19.28;79.18;98069.31;10284661;28;20118;-53
2023/09/25 19:50:52;;;;;;;18.27;11.95;;;;;;;19.21;79.53;98067.78;10283584;28;20065;-53
2023/09/25 19:55:51;;;;;;;15.75;12.65;;;;;;;19.13;79.57;98072.41;10285489;28;20043;-49
2023/09/25 20:00:50;;;;;;;16.38;12.75;;;;;;;19.08;79.63;98067.28;10284061;28;20026;-50
2023/09/25 20:05:49;;;;;;;16.35;11.25;;;;;;;18.98;79.88;98066.72;10284385;28;20038;-51
2023/09/25 20:10:49;;;;;;;15.07;12.10;;;;;;;18.90;80.42;98075.72;10283255;28;20084;-52
2023/09/25 20:15:48;;;;;;;18.98;12.15;;;;;;;18.82;80.34;98078.59;10284767;28;20545;-52
2023/09/25 20:20:53;;;;;;;17.38;13.40;;;;;;;18.64;81.02;98058.03;10281985;28;20124;-51
2023/09/25 20:25:52;;;;;;;17.70;14.10;;;;;;;18.64;80.88;98073.81;10282057;28;20124;-52
2023/09/25 20:30:51;;;;;;;18.20;11.43;;;;;;;18.46;82.20;98064.69;10282762;28;20096;-52
2023/09/25 20:35:50;;;;;;;19.63;11.88;;;;;;;18.43;82.66;98078.75;10284149;28;20026;-52
2023/09/25 20:40:50;;;;;;;18.10;11.50;;;;;;;18.33;82.84;98064.16;10282414;28;20018;-51
2023/09/25 20:45:49;;;;;;;15.02;11.95;;;;;;;18.28;82.81;98064.28;10282949;28;20536;-52
2023/09/25 20:50:48;;;;;;;21.05;11.40;;;;;;;18.26;82.51;98067.88;10282014;28;20446;-52
2023/09/25 20:55:47;;;;;;;18.40;12.30;;;;;;;18.08;82.62;98041.19;10282934;28;20053;-53
2023/09/25 21:00:48;;;;;;;17.80;12.20;;;;;;;18.09;82.37;98060.44;10283386;28;20559;-53
2023/09/25 21:05:47;;;;;;;15.82;11.95;;;;;;;18.13;82.36;98065.56;10283013;28;20821;-52
2023/09/25 21:10:46;;;;;;;20.65;11.98;;;;;;;18.05;82.73;98057.00;10282337;28;20120;-50
2023/09/25 21:15:45;;;;;;;17.25;11.88;;;;;;;17.94;83.21;98064.31;10282447;28;20053;-51
2023/09/25 21:20:46;;;;;;;23.10;12.32;;;;;;;17.75;83.74;98050.75;10282334;28;20044;-52
2023/09/25 21:25:45;;;;;;;17.92;11.70;;;;;;;17.82;83.23;98051.50;10282337;28;20508;-52
2023/09/25 21:30:44;;;;;;;16.70;11.48;;;;;;;17.84;82.85;98050.56;10281381;28;20065;-51
2023/09/25 21:35:44;;;;;;;17.58;11.50;;;;;;;17.70;82.53;98029.00;10281217;28;20108;-52
2023/09/25 21:40:44;;;;;;;18.42;12.55;;;;;;;17.73;82.49;98037.69;10288836;28;20066;-52
2023/09/25 21:45:43;;;;;;;17.15;12.18;;;;;;;17.65;82.76;98051.91;10293535;28;20045;-51
2023/09/25 21:50:42;;;;;;;19.10;12.48;;;;;;;17.59;82.92;98042.41;10293069;28;20084;-52
2023/09/25 21:55:40;;;;;;;19.38;13.05;;;;;;;17.51;83.24;98036.47;10293224;28;20032;-51
2023/09/25 22:00:39;;;;;;;20.42;12.70;;;;;;;17.43;83.33;98039.31;10291961;28;20126;-52
2023/09/25 22:05:38;;;;;;;17.38;13.52;;;;;;;17.33;83.62;98029.91;10289906;28;20049;-51
2023/09/25 22:10:37;;;;;;;;;;;;;;;17.23;84.10;98049.41;10289006;28;20026;-52
2023/09/25 22:15:37;;;;;;;18.20;13.43;;;;;;;17.04;84.35;98031.44;10291902;28;19913;-51
2023/09/25 22:20:39;;;;;;;25.42;12.98;;;;;;;17.04;84.58;98041.09;10289171;28;20069;-52
2023/09/25 22:25:41;;;;;;;16.95;12.25;;;;;;;16.85;85.03;98045.88;10290203;28;20140;-51
2023/09/25 22:30:40;;;;;;;20.00;12.52;;;;;;;16.80;85.05;98040.69;10286109;28;20142;-50
2023/09/25 22:35:39;;;;;;;20.23;11.88;;;;;;;16.76;85.30;98049.50;10292774;28;20066;-49
2023/09/25 22:40:40;;;;;;;18.52;12.02;;;;;;;16.74;84.99;98056.53;10271736;28;20576;-51